createdAt,value
2023-03-05T00:01:33.098Z,5.70
2023-03-05T00:04:02.085Z,4.10
2023-03-05T00:06:31.670Z,4.17
2023-03-05T00:09:01.206Z,3.80
2023-03-05T00:11:31.509Z,4.37
2023-03-05T00:14:00.879Z,3.33
2023-03-05T00:16:30.187Z,2.90
2023-03-05T00:18:59.693Z,3.70
2023-03-05T00:21:29.741Z,3.30
2023-03-05T00:24:00.913Z,2.93
2023-03-05T00:26:31.509Z,3.20
2023-03-05T00:28:59.823Z,3.07
2023-03-05T00:31:31.015Z,2.97
2023-03-05T00:34:01.324Z,3.40
2023-03-05T00:36:29.673Z,2.90
2023-03-05T00:38:58.046Z,2.40
2023-03-05T00:41:26.088Z,2.83
2023-03-05T00:43:55.797Z,3.23
2023-03-05T00:46:24.524Z,2.73
2023-03-05T00:48:52.649Z,2.63
2023-03-05T00:51:21.157Z,2.80
2023-03-05T00:53:49.228Z,3.60
2023-03-05T00:56:17.372Z,2.60
2023-03-05T00:58:45.448Z,2.60
2023-03-05T01:01:15.241Z,2.97
2023-03-05T01:03:43.431Z,2.97
2023-03-05T01:06:14.991Z,2.43
2023-03-05T01:08:43.459Z,2.50
2023-03-05T01:11:13.781Z,2.70
2023-03-05T01:13:42.106Z,2.40
2023-03-05T01:16:10.690Z,2.40
2023-03-05T01:18:40.328Z,2.57
2023-03-05T01:21:08.875Z,2.70
2023-03-05T01:23:37.489Z,2.80
2023-03-05T01:26:08.404Z,3.13
2023-03-05T01:28:38.196Z,2.57
2023-03-05T01:31:09.126Z,2.40
2023-03-05T01:33:37.456Z,2.57
2023-03-05T01:36:13.276Z,2.77
2023-03-05T01:38:41.547Z,2.70
2023-03-05T01:41:10.584Z,2.40
2023-03-05T01:43:38.895Z,2.40
2023-03-05T01:46:38.098Z,3.30
2023-03-05T01:49:18.423Z,2.50
2023-03-05T01:51:59.449Z,3.70
2023-03-05T01:54:31.491Z,2.40
2023-03-05T01:57:03.070Z,3.20
2023-03-05T01:59:32.092Z,2.37
2023-03-05T02:02:00.481Z,2.10
2023-03-05T02:04:35.362Z,3.00
2023-03-05T02:07:05.012Z,1.90
2023-03-05T02:09:33.099Z,2.00
2023-03-05T02:12:01.205Z,1.73
2023-03-05T02:14:29.496Z,2.10
2023-03-05T02:16:57.528Z,2.60
2023-03-05T02:19:25.726Z,2.23
2023-03-05T02:21:55.325Z,2.77
2023-03-05T02:24:35.792Z,2.07
2023-03-05T02:27:05.884Z,2.57
2023-03-05T02:29:35.380Z,2.00
2023-03-05T02:32:03.653Z,2.10
2023-03-05T02:34:31.815Z,1.80
2023-03-05T02:37:02.579Z,3.00
2023-03-05T02:39:30.898Z,2.10
2023-03-05T02:41:59.233Z,2.70
2023-03-05T02:44:27.863Z,2.23
2023-03-05T02:46:56.287Z,1.80
2023-03-05T02:49:24.351Z,1.90
2023-03-05T02:51:52.401Z,2.00
2023-03-05T02:54:22.567Z,2.90
2023-03-05T02:56:50.871Z,1.93
2023-03-05T02:59:19.467Z,2.47
2023-03-05T03:01:47.558Z,1.93
2023-03-05T03:04:15.578Z,2.90
2023-03-05T03:06:43.599Z,2.67
2023-03-05T03:09:11.787Z,2.40
2023-03-05T03:11:41.151Z,2.70
2023-03-05T03:14:09.170Z,2.37
2023-03-05T03:16:37.186Z,3.10
2023-03-05T03:19:05.707Z,2.43
2023-03-05T03:21:33.707Z,2.40
2023-03-05T03:24:01.727Z,3.10
2023-03-05T03:26:30.472Z,2.70
2023-03-05T03:28:59.817Z,3.33
2023-03-05T03:31:27.885Z,2.23
2023-03-05T03:33:55.977Z,2.43
2023-03-05T03:36:24.086Z,2.53
2023-03-05T03:38:52.121Z,1.97
2023-03-05T03:41:21.010Z,2.53
2023-03-05T03:43:49.028Z,2.73
2023-03-05T03:46:18.429Z,2.37
2023-03-05T03:48:46.535Z,2.50
2023-03-05T03:51:14.566Z,2.90
2023-03-05T03:53:42.566Z,2.60
2023-03-05T03:56:10.604Z,2.63
2023-03-05T03:58:38.563Z,2.67
2023-03-05T04:01:06.654Z,2.10
2023-03-05T04:03:36.059Z,2.07
2023-03-05T04:06:04.534Z,2.77
2023-03-05T04:08:32.579Z,3.07
2023-03-05T04:11:02.110Z,2.20
2023-03-05T04:13:30.572Z,2.20
2023-03-05T04:15:59.318Z,2.40
2023-03-05T04:18:27.378Z,2.20
2023-03-05T04:20:56.778Z,1.80
2023-03-05T04:23:24.867Z,2.00
2023-03-05T04:25:52.918Z,2.03
2023-03-05T04:28:20.923Z,2.60
2023-03-05T04:30:49.066Z,1.83
2023-03-05T04:33:17.148Z,2.17
2023-03-05T04:35:45.328Z,2.27
2023-03-05T04:38:14.803Z,2.50
2023-03-05T04:40:42.936Z,1.87
2023-03-05T04:43:10.923Z,3.30
2023-03-05T04:45:40.621Z,3.60
2023-03-05T04:48:09.393Z,2.87
2023-03-05T04:50:37.523Z,2.50
2023-03-05T04:53:06.187Z,2.60
2023-03-05T04:55:35.539Z,2.13
2023-03-05T04:58:03.577Z,1.77
2023-03-05T05:00:31.606Z,2.87
2023-03-05T05:02:59.666Z,2.37
2023-03-05T05:05:29.419Z,2.97
2023-03-05T05:07:58.624Z,1.63
2023-03-05T05:10:27.902Z,2.13
2023-03-05T05:12:57.378Z,2.67
2023-03-05T05:15:25.576Z,1.90
2023-03-05T05:17:53.582Z,1.97
2023-03-05T05:20:21.859Z,1.97
2023-03-05T05:22:49.903Z,2.60
2023-03-05T05:25:18.059Z,2.90
2023-03-05T05:27:46.093Z,2.40
2023-03-05T05:30:15.914Z,2.17
2023-03-05T05:32:43.888Z,2.23
2023-03-05T05:35:12.458Z,2.87
2023-03-05T05:37:40.453Z,2.70
2023-03-05T05:40:10.328Z,2.50
2023-03-05T05:42:38.466Z,2.90
2023-03-05T05:45:07.693Z,2.77
2023-03-05T05:47:37.140Z,2.97
2023-03-05T05:50:05.528Z,4.60
2023-03-05T05:52:33.517Z,3.67
2023-03-05T05:55:01.604Z,2.60
2023-03-05T05:57:29.652Z,2.70
2023-03-05T05:59:58.093Z,2.80
2023-03-05T06:02:27.700Z,2.40
2023-03-05T06:04:58.438Z,3.10
2023-03-05T06:07:26.640Z,2.70
2023-03-05T06:09:54.728Z,2.57
2023-03-05T06:12:22.726Z,2.90
2023-03-05T06:14:50.757Z,2.50
2023-03-05T06:17:28.590Z,2.60
2023-03-05T06:19:58.387Z,3.00
2023-03-05T06:22:26.596Z,2.67
2023-03-05T06:24:54.574Z,2.40
2023-03-05T06:27:22.869Z,2.43
2023-03-05T06:29:53.781Z,2.20
2023-03-05T06:32:22.106Z,2.70
2023-03-05T06:34:50.199Z,2.30
2023-03-05T06:37:19.691Z,2.93
2023-03-05T06:39:47.864Z,3.17
2023-03-05T06:42:17.673Z,2.50
2023-03-05T06:44:47.288Z,2.53
2023-03-05T06:47:16.455Z,2.27
2023-03-05T06:49:44.504Z,2.00
2023-03-05T06:52:12.787Z,2.60
2023-03-05T06:54:42.221Z,2.60
2023-03-05T06:57:11.531Z,2.63
2023-03-05T06:59:39.562Z,2.33
2023-03-05T07:02:07.783Z,2.70
2023-03-05T07:04:35.952Z,3.07
2023-03-05T07:07:04.003Z,2.63
2023-03-05T07:09:32.090Z,2.57
2023-03-05T07:12:01.502Z,4.00
2023-03-05T07:14:29.520Z,3.50
2023-03-05T07:16:57.510Z,3.50
2023-03-05T07:19:25.571Z,3.93
2023-03-05T07:21:53.555Z,3.70
2023-03-05T07:24:21.589Z,3.80
2023-03-05T07:26:49.565Z,4.47
2023-03-05T07:29:18.878Z,3.73
2023-03-05T07:31:47.034Z,4.00
2023-03-05T07:34:15.063Z,3.73
2023-03-05T07:36:43.282Z,3.27
2023-03-05T07:39:12.387Z,4.03
2023-03-05T07:41:40.650Z,3.30
2023-03-05T07:44:08.672Z,3.73
2023-03-05T07:46:38.262Z,2.70
2023-03-05T07:49:06.442Z,3.40
2023-03-05T07:51:34.509Z,4.03
2023-03-05T07:54:03.034Z,3.90
2023-03-05T07:56:35.215Z,2.90
2023-03-05T07:59:06.637Z,3.60
2023-03-05T08:01:35.377Z,3.80
2023-03-05T08:04:05.630Z,3.20
2023-03-05T08:06:33.914Z,3.60
2023-03-05T08:09:01.991Z,3.30
2023-03-05T08:11:30.032Z,3.60
2023-03-05T08:13:59.445Z,3.27
2023-03-05T08:16:27.980Z,3.87
2023-03-05T08:18:57.508Z,3.80
2023-03-05T08:21:29.724Z,2.90
2023-03-05T08:23:58.400Z,3.57
2023-03-05T08:26:28.759Z,3.10
2023-03-05T08:28:57.251Z,3.40
2023-03-05T08:31:27.566Z,3.00
2023-03-05T08:33:56.928Z,3.73
2023-03-05T08:36:26.498Z,5.57
2023-03-05T08:38:54.566Z,4.10
2023-03-05T08:41:22.915Z,4.23
2023-03-05T08:43:50.920Z,4.00
2023-03-05T08:46:19.087Z,4.93
2023-03-05T08:48:47.156Z,4.60
2023-03-05T08:51:16.626Z,4.07
2023-03-05T08:53:46.891Z,5.80
2023-03-05T08:56:15.366Z,4.10
2023-03-05T08:58:43.989Z,5.17
2023-03-05T09:01:12.489Z,4.87
2023-03-05T09:03:40.757Z,4.80
2023-03-05T09:06:10.825Z,6.50
2023-03-05T09:08:39.422Z,6.20
2023-03-05T09:11:10.753Z,6.57
2023-03-05T09:13:38.757Z,7.03
2023-03-05T09:16:09.466Z,5.97
2023-03-05T09:18:37.519Z,4.40
2023-03-05T09:21:06.938Z,4.30
2023-03-05T09:23:35.441Z,4.40
2023-03-05T09:26:05.721Z,4.90
2023-03-05T09:28:35.036Z,5.07
2023-03-05T09:31:04.618Z,4.57
2023-03-05T09:33:33.344Z,4.77
2023-03-05T09:36:01.801Z,4.50
2023-03-05T09:38:30.544Z,4.70
2023-03-05T09:41:05.521Z,4.70
2023-03-05T09:43:48.368Z,5.67
2023-03-05T09:46:33.797Z,6.37
2023-03-05T09:49:09.462Z,7.23
2023-03-05T09:51:42.043Z,7.80
2023-03-05T09:54:15.024Z,6.70
2023-03-05T09:56:45.909Z,9.00
2023-03-05T09:59:32.441Z,8.40
2023-03-05T10:02:04.359Z,8.93
2023-03-05T10:04:43.870Z,10.97
2023-03-05T10:07:18.804Z,9.33
2023-03-05T10:09:50.579Z,9.27
2023-03-05T10:12:27.767Z,8.47
2023-03-05T10:14:57.404Z,8.13
2023-03-05T10:18:10.319Z,9.90
2023-03-05T10:20:49.586Z,8.43
2023-03-05T10:23:30.037Z,7.67
2023-03-05T10:26:04.965Z,7.17
2023-03-05T10:28:41.589Z,6.90
2023-03-05T10:31:25.265Z,8.07
2023-03-05T10:34:02.661Z,8.23
2023-03-05T10:36:46.807Z,8.63
2023-03-05T10:39:47.779Z,7.67
2023-03-05T10:42:26.534Z,8.50
2023-03-05T10:44:56.627Z,8.80
2023-03-05T10:47:29.577Z,9.63
2023-03-05T10:49:59.522Z,10.20
2023-03-05T10:52:32.705Z,9.93
2023-03-05T10:55:00.775Z,11.57
2023-03-05T10:57:32.242Z,10.70
2023-03-05T11:00:13.605Z,10.03
2023-03-05T11:02:58.614Z,10.57
2023-03-05T11:05:45.526Z,10.77
2023-03-05T11:08:26.719Z,10.07
2023-03-05T11:11:07.159Z,10.20
2023-03-05T11:13:39.664Z,9.60
2023-03-05T11:16:18.338Z,11.53
2023-03-05T11:18:49.675Z,10.80
2023-03-05T11:21:27.614Z,10.90
2023-03-05T11:24:06.654Z,11.20
2023-03-05T11:26:35.429Z,9.27
2023-03-05T11:29:04.879Z,8.40
2023-03-05T11:31:34.211Z,7.70
2023-03-05T11:34:05.781Z,8.40
2023-03-05T11:36:35.791Z,8.63
2023-03-05T11:39:13.019Z,8.47
2023-03-05T11:41:44.626Z,9.70
2023-03-05T11:44:17.004Z,8.80
2023-03-05T11:46:48.492Z,7.63
2023-03-05T11:49:22.503Z,8.13
2023-03-05T11:52:01.201Z,7.67
2023-03-05T11:54:35.010Z,7.00
2023-03-05T11:57:04.778Z,7.40
2023-03-05T11:59:36.626Z,8.10
2023-03-05T12:02:12.772Z,8.30
2023-03-05T12:04:42.224Z,7.97
2023-03-05T12:07:16.584Z,9.10
2023-03-05T12:09:47.712Z,8.40
2023-03-05T12:12:38.167Z,8.53
2023-03-05T12:15:26.748Z,9.80
2023-03-05T12:18:06.658Z,9.90
2023-03-05T12:20:42.220Z,9.13
2023-03-05T12:23:15.130Z,12.40
2023-03-05T12:25:48.704Z,9.80
2023-03-05T12:28:18.892Z,9.13
2023-03-05T12:30:59.201Z,8.13
2023-03-05T12:33:36.813Z,7.90
2023-03-05T12:36:37.754Z,8.67
2023-03-05T12:39:43.909Z,7.77
2023-03-05T12:42:51.565Z,7.10
2023-03-05T12:45:29.322Z,6.73
2023-03-05T12:48:30.761Z,7.30
2023-03-05T12:50:59.670Z,7.20
2023-03-05T12:53:29.277Z,7.90
2023-03-05T12:56:02.086Z,7.20
2023-03-05T12:58:38.999Z,7.20
2023-03-05T13:01:17.526Z,7.90
2023-03-05T13:03:48.587Z,7.67
2023-03-05T13:06:28.347Z,6.60
2023-03-05T13:09:03.476Z,6.20
2023-03-05T13:11:34.324Z,6.67
2023-03-05T13:14:03.100Z,5.87
2023-03-05T13:16:38.545Z,6.00
2023-03-05T13:19:17.460Z,5.30
2023-03-05T13:21:46.013Z,5.47
2023-03-05T13:24:20.351Z,5.70
2023-03-05T13:26:48.370Z,4.90
2023-03-05T13:29:18.006Z,4.90
2023-03-05T13:31:48.524Z,4.93
2023-03-05T13:34:19.593Z,4.73
2023-03-05T13:36:51.017Z,4.17
2023-03-05T13:39:22.990Z,4.83
2023-03-05T13:42:02.683Z,4.47
2023-03-05T13:44:31.453Z,4.93
2023-03-05T13:47:18.135Z,5.43
2023-03-05T13:49:47.256Z,5.23
2023-03-05T13:52:24.950Z,5.00
2023-03-05T13:54:54.459Z,4.40
2023-03-05T13:57:36.843Z,4.77
2023-03-05T14:00:06.888Z,5.40
2023-03-05T14:02:35.119Z,6.70
2023-03-05T14:05:03.398Z,8.07
2023-03-05T14:07:36.671Z,7.60
2023-03-05T14:10:29.242Z,7.23
2023-03-05T14:12:58.219Z,11.10
2023-03-05T14:15:28.338Z,11.10
2023-03-05T14:18:18.059Z,10.30
2023-03-05T14:21:01.708Z,11.30
2023-03-05T14:23:37.325Z,8.97
2023-03-05T14:26:38.618Z,8.43
2023-03-05T14:29:17.436Z,8.10
2023-03-05T14:31:50.196Z,7.90
2023-03-05T14:34:23.955Z,6.60
2023-03-05T14:36:54.558Z,7.27
2023-03-05T14:39:29.561Z,7.80
2023-03-05T14:42:26.756Z,10.20
2023-03-05T14:44:56.573Z,8.80
2023-03-05T14:47:25.474Z,7.70
2023-03-05T14:49:54.021Z,7.80
2023-03-05T14:52:25.414Z,7.87
2023-03-05T14:54:55.176Z,7.37
2023-03-05T14:57:28.011Z,8.03
2023-03-05T14:59:56.640Z,7.40
2023-03-05T15:02:26.226Z,7.77
2023-03-05T15:04:54.528Z,7.40
2023-03-05T15:07:26.971Z,7.43
2023-03-05T15:09:55.058Z,8.57
2023-03-05T15:12:25.259Z,7.70
2023-03-05T15:14:53.711Z,8.43
2023-03-05T15:17:24.589Z,7.80
2023-03-05T15:19:53.752Z,8.33
2023-03-05T15:22:22.188Z,8.70
2023-03-05T15:24:50.212Z,8.60
2023-03-05T15:27:18.281Z,7.90
2023-03-05T15:29:47.730Z,8.10
2023-03-05T15:32:15.786Z,8.20
2023-03-05T15:34:43.947Z,7.30
2023-03-05T15:37:11.980Z,7.10
2023-03-05T15:39:40.023Z,7.80
2023-03-05T15:42:08.472Z,7.90
2023-03-05T15:44:36.568Z,10.73
2023-03-05T15:47:06.118Z,7.87
2023-03-05T15:49:34.393Z,7.03
2023-03-05T15:52:02.625Z,6.87
2023-03-05T15:54:30.702Z,8.73
2023-03-05T15:56:58.764Z,8.40
2023-03-05T15:59:27.224Z,9.73
2023-03-05T16:01:55.332Z,7.13
2023-03-05T16:04:24.822Z,8.50
2023-03-05T16:06:52.896Z,7.90
2023-03-05T16:09:22.043Z,7.97
2023-03-05T16:11:51.462Z,7.80
2023-03-05T16:14:24.126Z,11.73
2023-03-05T16:16:56.379Z,10.80
2023-03-05T16:19:26.846Z,11.00
2023-03-05T16:21:55.932Z,10.80
2023-03-05T16:24:24.055Z,25.20
2023-03-05T16:26:52.074Z,11.30
2023-03-05T16:29:20.099Z,9.50
2023-03-05T16:31:48.214Z,9.70
2023-03-05T16:34:16.339Z,10.70
2023-03-05T16:36:50.849Z,9.47
2023-03-05T16:39:19.586Z,10.80
2023-03-05T16:41:47.657Z,8.90
2023-03-05T16:44:15.758Z,10.10
2023-03-05T16:46:49.093Z,10.30
2023-03-05T16:49:17.771Z,10.97
2023-03-05T16:51:45.824Z,10.30
2023-03-05T16:54:15.285Z,10.17
2023-03-05T16:56:43.362Z,9.93
2023-03-05T16:59:11.666Z,10.50
2023-03-05T17:01:39.782Z,10.97
2023-03-05T17:04:07.985Z,10.07
2023-03-05T17:06:36.267Z,10.73
2023-03-05T17:09:05.078Z,11.23
2023-03-05T17:11:34.577Z,11.50
2023-03-05T17:14:03.988Z,10.87
2023-03-05T17:16:32.254Z,10.70
2023-03-05T17:19:00.514Z,10.70
2023-03-05T17:21:28.618Z,10.37
2023-03-05T17:23:56.785Z,10.13
2023-03-05T17:26:24.950Z,10.90
2023-03-05T17:28:54.580Z,10.40
2023-03-05T17:31:23.035Z,9.93
2023-03-05T17:33:51.775Z,12.30
2023-03-05T17:36:21.249Z,11.37
2023-03-05T17:38:50.461Z,9.70
2023-03-05T17:41:19.674Z,11.73
2023-03-05T17:43:48.189Z,10.90
2023-03-05T17:46:17.911Z,9.67
2023-03-05T17:48:46.135Z,10.23
2023-03-05T17:51:16.668Z,9.03
2023-03-05T17:53:45.339Z,9.63
2023-03-05T17:56:16.023Z,10.90
2023-03-05T17:58:44.393Z,43.33
2023-03-05T18:01:12.736Z,11.43
2023-03-05T18:03:42.213Z,13.70
2023-03-05T18:06:10.214Z,10.30
2023-03-05T18:08:39.429Z,9.07
2023-03-05T18:11:07.580Z,9.20
2023-03-05T18:13:35.622Z,8.90
2023-03-05T18:16:03.784Z,7.60
2023-03-05T18:18:31.781Z,8.47
2023-03-05T18:21:01.303Z,7.70
2023-03-05T18:23:29.579Z,8.40
2023-03-05T18:25:57.677Z,8.70
2023-03-05T18:28:26.704Z,7.27
2023-03-05T18:30:54.853Z,7.30
2023-03-05T18:33:25.488Z,8.07
2023-03-05T18:35:54.032Z,7.47
2023-03-05T18:38:25.430Z,8.00
2023-03-05T18:40:55.428Z,7.63
2023-03-05T18:43:25.352Z,7.40
2023-03-05T18:45:55.595Z,7.30
2023-03-05T18:48:24.397Z,8.30
2023-03-05T18:50:53.663Z,8.70
2023-03-05T18:53:23.579Z,8.20
2023-03-05T18:55:53.243Z,9.77
2023-03-05T18:58:21.307Z,9.40
2023-03-05T19:00:49.867Z,8.37
2023-03-05T19:03:20.616Z,8.23
2023-03-05T19:05:51.156Z,7.80
2023-03-05T19:08:20.016Z,7.50
2023-03-05T19:10:49.457Z,7.83
2023-03-05T19:13:27.969Z,7.30
2023-03-05T19:15:56.089Z,7.13
2023-03-05T19:18:26.444Z,7.77
2023-03-05T19:20:57.804Z,7.87
2023-03-05T19:23:26.195Z,8.00
2023-03-05T19:25:56.051Z,8.33
2023-03-05T19:28:27.561Z,8.10
2023-03-05T19:30:55.675Z,9.00
2023-03-05T19:33:25.035Z,7.40
2023-03-05T19:35:53.225Z,7.70
2023-03-05T19:38:21.291Z,7.13
2023-03-05T19:40:49.516Z,7.17
2023-03-05T19:43:18.937Z,10.30
2023-03-05T19:45:46.988Z,8.87
2023-03-05T19:48:16.873Z,9.30
2023-03-05T19:50:44.960Z,8.50
2023-03-05T19:53:13.077Z,11.07
2023-03-05T19:55:41.478Z,10.30
2023-03-05T19:58:09.616Z,8.20
2023-03-05T20:00:39.013Z,8.27
2023-03-05T20:03:07.021Z,8.30
2023-03-05T20:05:35.435Z,8.70
2023-03-05T20:08:03.545Z,8.60
2023-03-05T20:10:31.585Z,8.03
2023-03-05T20:12:59.633Z,8.20
2023-03-05T20:15:29.372Z,7.67
2023-03-05T20:17:59.654Z,8.10
2023-03-05T20:20:28.834Z,7.90
2023-03-05T20:22:56.829Z,8.30
2023-03-05T20:25:25.268Z,7.60
2023-03-05T20:27:53.532Z,8.60
2023-03-05T20:30:21.655Z,8.43
2023-03-05T20:32:49.805Z,9.03
2023-03-05T20:35:19.878Z,9.30
2023-03-05T20:38:00.075Z,8.80
2023-03-05T20:40:28.191Z,8.83
2023-03-05T20:42:56.219Z,8.80
2023-03-05T20:45:24.300Z,9.63
2023-03-05T20:47:52.544Z,9.40
2023-03-05T20:50:22.343Z,9.00
2023-03-05T20:52:50.423Z,9.93
2023-03-05T20:55:18.540Z,9.40
2023-03-05T20:57:46.531Z,10.20
2023-03-05T21:00:15.466Z,10.00
2023-03-05T21:02:43.677Z,10.90
2023-03-05T21:05:12.530Z,10.70
2023-03-05T21:07:42.824Z,11.60
2023-03-05T21:10:12.198Z,13.00
2023-03-05T21:12:40.242Z,12.67
2023-03-05T21:15:09.419Z,13.70
2023-03-05T21:17:37.515Z,12.50
2023-03-05T21:20:07.195Z,14.50
2023-03-05T21:22:35.618Z,14.60
2023-03-05T21:25:20.658Z,25.90
2023-03-05T21:27:50.813Z,21.60
2023-03-05T21:30:19.494Z,17.53
2023-03-05T21:32:48.423Z,17.67
2023-03-05T21:35:18.235Z,17.10
2023-03-05T21:37:46.462Z,13.13
2023-03-05T21:40:18.547Z,14.40
2023-03-05T21:42:47.130Z,15.17
2023-03-05T21:45:19.657Z,15.00
2023-03-05T21:47:48.568Z,13.50
2023-03-05T21:50:17.884Z,14.63
2023-03-05T21:52:46.079Z,14.27
2023-03-05T21:55:17.541Z,14.20
2023-03-05T21:57:46.150Z,14.30
2023-03-05T22:00:17.122Z,14.60
2023-03-05T22:02:45.919Z,16.27
2023-03-05T22:05:15.547Z,15.20
2023-03-05T22:07:44.452Z,15.93
2023-03-05T22:10:16.273Z,15.63
2023-03-05T22:12:53.351Z,14.60
2023-03-05T22:15:22.115Z,15.10
2023-03-05T22:17:50.492Z,16.20
2023-03-05T22:20:19.408Z,14.90
2023-03-05T22:22:47.635Z,13.20
2023-03-05T22:25:17.832Z,13.30
2023-03-05T22:27:46.106Z,14.77
2023-03-05T22:30:14.802Z,14.00
2023-03-05T22:32:42.840Z,13.27
2023-03-05T22:35:13.611Z,13.87
2023-03-05T22:37:42.265Z,14.00
2023-03-05T22:40:14.673Z,12.93
2023-03-05T22:42:44.793Z,12.70
2023-03-05T22:45:13.914Z,12.80
2023-03-05T22:47:42.301Z,12.90
2023-03-05T22:50:11.749Z,11.10
2023-03-05T22:52:39.910Z,12.50
2023-03-05T22:55:08.601Z,11.70
2023-03-05T22:57:36.669Z,11.80
2023-03-05T23:00:08.019Z,13.47
2023-03-05T23:02:36.187Z,12.40
2023-03-05T23:05:04.373Z,11.80
2023-03-05T23:07:34.596Z,11.77
2023-03-05T23:10:05.985Z,11.17
2023-03-05T23:12:36.948Z,10.90
2023-03-05T23:15:09.634Z,11.33
2023-03-05T23:17:37.882Z,9.73
2023-03-05T23:20:08.327Z,9.33
2023-03-05T23:22:36.744Z,9.50
2023-03-05T23:25:05.227Z,9.60
2023-03-05T23:27:33.204Z,7.87
2023-03-05T23:30:12.660Z,8.10
2023-03-05T23:32:41.951Z,8.83
2023-03-05T23:35:11.156Z,8.10
2023-03-05T23:37:39.277Z,7.70
2023-03-05T23:40:12.447Z,7.83
2023-03-05T23:42:40.567Z,8.50
2023-03-05T23:45:10.504Z,7.50
2023-03-05T23:47:38.980Z,8.70
2023-03-05T23:50:12.237Z,8.20
2023-03-05T23:52:40.302Z,8.83
2023-03-05T23:55:09.215Z,9.67
2023-03-05T23:57:37.301Z,8.80
